createdAt,value
2022-10-22T00:01:12.647Z,18.45
2022-10-22T00:03:45.464Z,18.40
2022-10-22T00:06:19.676Z,18.32
2022-10-22T00:08:52.887Z,18.28
2022-10-22T00:11:25.968Z,18.36
2022-10-22T00:13:59.372Z,18.21
2022-10-22T00:16:32.195Z,18.39
2022-10-22T00:19:05.004Z,18.46
2022-10-22T00:21:39.206Z,18.33
2022-10-22T00:24:11.979Z,18.30
2022-10-22T00:26:45.054Z,18.32
2022-10-22T00:29:19.967Z,18.39
2022-10-22T00:31:52.971Z,18.22
2022-10-22T00:34:27.941Z,18.30
2022-10-22T00:37:02.135Z,18.26
2022-10-22T00:39:35.085Z,18.17
2022-10-22T00:42:07.897Z,18.19
2022-10-22T00:45:06.160Z,17.99
2022-10-22T00:47:42.391Z,18.17
2022-10-22T00:50:24.451Z,18.07
2022-10-22T00:52:59.301Z,18.07
2022-10-22T00:55:33.905Z,18.14
2022-10-22T00:58:06.816Z,18.02
2022-10-22T01:00:39.977Z,17.91
2022-10-22T01:03:12.958Z,18.18
2022-10-22T01:05:58.207Z,18.26
2022-10-22T01:08:40.730Z,18.25
2022-10-22T01:11:22.837Z,18.07
2022-10-22T01:14:05.920Z,18.07
2022-10-22T01:16:45.828Z,18.03
2022-10-22T01:19:36.901Z,18.05
2022-10-22T01:22:20.111Z,18.20
2022-10-22T01:25:01.364Z,17.91
2022-10-22T01:27:45.490Z,18.01
2022-10-22T01:30:20.307Z,18.06
2022-10-22T01:32:58.060Z,17.98
2022-10-22T01:37:31.028Z,18.00
2022-10-22T01:40:04.709Z,17.94
2022-10-22T01:42:37.546Z,17.94
2022-10-22T01:45:13.653Z,17.75
2022-10-22T01:48:00.296Z,17.46
2022-10-22T01:50:54.132Z,17.67
2022-10-22T01:53:38.558Z,17.79
2022-10-22T01:56:25.909Z,17.74
2022-10-22T01:59:08.250Z,17.73
2022-10-22T02:01:50.184Z,17.74
2022-10-22T02:04:29.134Z,17.72
2022-10-22T02:07:07.445Z,17.81
2022-10-22T02:09:43.152Z,17.82
2022-10-22T02:12:18.862Z,17.81
2022-10-22T02:14:53.351Z,17.91
2022-10-22T02:17:30.168Z,17.92
2022-10-22T02:20:07.177Z,17.90
2022-10-22T02:22:40.306Z,17.91
2022-10-22T02:25:14.782Z,17.74
2022-10-22T02:27:51.149Z,17.95
2022-10-22T02:30:24.522Z,17.72
2022-10-22T02:33:03.646Z,17.78
2022-10-22T02:35:38.163Z,17.95
2022-10-22T02:38:12.643Z,17.90
2022-10-22T02:40:47.919Z,17.95
2022-10-22T02:43:20.965Z,17.89
2022-10-22T02:45:53.944Z,17.76
2022-10-22T02:48:27.005Z,17.81
2022-10-22T02:50:59.826Z,17.96
2022-10-22T02:53:32.646Z,17.88
2022-10-22T02:56:07.320Z,17.86
2022-10-22T02:58:40.154Z,17.89
2022-10-22T03:01:15.389Z,17.88
2022-10-22T03:03:49.128Z,18.01
2022-10-22T03:06:21.966Z,17.98
2022-10-22T03:08:54.852Z,17.91
2022-10-22T03:11:29.073Z,17.94
2022-10-22T03:14:01.876Z,17.98
2022-10-22T03:16:34.745Z,17.75
2022-10-22T03:19:07.557Z,17.60
2022-10-22T03:21:45.181Z,17.57
2022-10-22T03:24:22.716Z,17.83
2022-10-22T03:26:57.232Z,17.58
2022-10-22T03:29:32.619Z,17.29
2022-10-22T03:32:05.669Z,17.53
2022-10-22T03:34:38.501Z,17.47
2022-10-22T03:37:12.188Z,17.24
2022-10-22T03:39:45.293Z,17.17
2022-10-22T03:42:19.684Z,17.44
2022-10-22T03:44:52.562Z,17.22
2022-10-22T03:47:25.506Z,17.35
2022-10-22T03:49:58.326Z,17.21
2022-10-22T03:52:37.265Z,17.12
2022-10-22T03:55:10.739Z,16.64
2022-10-22T03:57:44.921Z,16.68
2022-10-22T04:00:17.939Z,16.82
2022-10-22T04:02:50.828Z,17.09
2022-10-22T04:05:23.606Z,16.92
2022-10-22T04:07:56.439Z,16.93
2022-10-22T04:10:29.270Z,17.25
2022-10-22T04:13:03.489Z,16.93
2022-10-22T04:15:36.375Z,16.95
2022-10-22T04:18:09.218Z,17.04
2022-10-22T04:20:42.917Z,16.96
2022-10-22T04:23:15.997Z,16.80
2022-10-22T04:25:48.779Z,16.86
2022-10-22T04:28:22.977Z,16.84
2022-10-22T04:30:55.774Z,16.58
2022-10-22T04:33:28.723Z,16.73
2022-10-22T04:36:03.042Z,16.65
2022-10-22T04:38:35.898Z,16.38
2022-10-22T04:41:13.614Z,16.45
2022-10-22T04:43:48.299Z,16.37
2022-10-22T04:46:21.742Z,16.49
2022-10-22T04:48:54.732Z,16.38
2022-10-22T04:51:28.890Z,16.52
2022-10-22T04:54:02.590Z,16.25
2022-10-22T04:56:35.416Z,16.29
2022-10-22T04:59:12.661Z,16.18
2022-10-22T05:01:46.020Z,16.19
2022-10-22T05:04:20.466Z,16.33
2022-10-22T05:06:53.307Z,16.19
2022-10-22T05:09:26.133Z,16.36
2022-10-22T05:11:58.962Z,16.39
2022-10-22T05:14:33.916Z,16.39
2022-10-22T05:17:06.734Z,16.30
2022-10-22T05:19:39.580Z,16.16
2022-10-22T05:22:12.377Z,16.02
2022-10-22T05:24:45.237Z,15.91
2022-10-22T05:29:53.263Z,15.90
2022-10-22T05:32:26.136Z,15.98
2022-10-22T05:34:58.949Z,16.03
2022-10-22T05:37:31.803Z,15.90
2022-10-22T05:40:19.086Z,15.84
2022-10-22T05:42:52.508Z,15.77
2022-10-22T05:45:26.736Z,15.86
2022-10-22T05:47:59.534Z,15.80
2022-10-22T05:50:32.478Z,15.80
2022-10-22T05:53:06.519Z,15.83
2022-10-22T05:55:40.634Z,15.79
2022-10-22T05:58:14.023Z,15.75
2022-10-22T06:00:48.370Z,15.86
2022-10-22T06:03:21.281Z,15.80
2022-10-22T06:05:54.110Z,15.91
2022-10-22T06:08:27.147Z,15.89
2022-10-22T06:11:00.759Z,15.92
2022-10-22T06:13:33.686Z,15.92
2022-10-22T06:16:08.278Z,15.87
2022-10-22T06:18:41.296Z,16.03
2022-10-22T06:21:16.497Z,16.06
2022-10-22T06:23:49.276Z,16.09
2022-10-22T06:26:22.084Z,16.12
2022-10-22T06:28:55.812Z,16.14
2022-10-22T06:31:36.551Z,16.15
2022-10-22T06:34:12.832Z,16.13
2022-10-22T06:36:46.591Z,16.18
2022-10-22T06:39:19.504Z,16.18
2022-10-22T06:41:52.318Z,16.12
2022-10-22T06:44:25.119Z,16.03
2022-10-22T06:46:59.381Z,15.89
2022-10-22T06:49:32.191Z,15.95
2022-10-22T06:52:05.048Z,15.79
2022-10-22T06:54:38.185Z,15.90
2022-10-22T06:57:11.004Z,15.89
2022-10-22T06:59:43.810Z,15.86
2022-10-22T07:02:18.062Z,15.73
2022-10-22T07:04:50.909Z,15.77
2022-10-22T07:07:23.729Z,15.70
2022-10-22T07:09:56.559Z,15.92
2022-10-22T07:12:29.418Z,15.92
2022-10-22T07:15:02.311Z,16.02
2022-10-22T07:17:36.691Z,15.94
2022-10-22T07:20:10.715Z,15.85
2022-10-22T07:22:43.729Z,15.65
2022-10-22T07:25:16.760Z,15.55
2022-10-22T07:27:49.604Z,15.67
2022-10-22T07:30:22.409Z,15.73
2022-10-22T07:32:56.644Z,15.87
2022-10-22T07:35:29.468Z,15.70
2022-10-22T07:38:02.510Z,15.94
2022-10-22T07:40:36.115Z,15.94
2022-10-22T07:43:08.995Z,15.88
2022-10-22T07:45:42.087Z,15.96
2022-10-22T07:48:16.593Z,15.96
2022-10-22T07:50:50.812Z,16.01
2022-10-22T07:54:00.016Z,15.98
2022-10-22T07:56:32.817Z,16.05
2022-10-22T07:59:05.709Z,16.12
2022-10-22T08:01:38.596Z,16.10
2022-10-22T08:04:11.770Z,16.13
2022-10-22T08:06:47.220Z,16.13
2022-10-22T08:09:22.208Z,16.30
2022-10-22T08:11:55.122Z,16.43
2022-10-22T08:14:28.125Z,16.61
2022-10-22T08:17:00.933Z,16.70
2022-10-22T08:19:35.361Z,16.65
2022-10-22T08:22:08.236Z,16.79
2022-10-22T08:24:42.657Z,16.81
2022-10-22T08:27:15.644Z,16.94
2022-10-22T08:29:48.486Z,17.13
2022-10-22T08:32:21.389Z,17.16
2022-10-22T08:34:54.348Z,17.42
2022-10-22T08:37:27.195Z,17.53
2022-10-22T08:40:01.602Z,17.68
2022-10-22T08:42:52.006Z,17.69
2022-10-22T08:45:31.583Z,17.63
2022-10-22T08:48:15.074Z,17.66
2022-10-22T08:50:50.873Z,17.93
2022-10-22T08:53:28.817Z,18.00
2022-10-22T08:56:03.068Z,18.07
2022-10-22T08:58:42.679Z,17.99
2022-10-22T09:01:19.702Z,18.30
2022-10-22T09:03:58.629Z,18.74
2022-10-22T09:06:34.420Z,18.98
2022-10-22T09:09:13.661Z,19.40
2022-10-22T09:11:50.674Z,19.76
2022-10-22T09:14:25.690Z,19.83
2022-10-22T09:17:17.241Z,19.76
2022-10-22T09:20:03.679Z,19.59
2022-10-22T09:22:41.902Z,19.56
2022-10-22T09:25:22.074Z,19.24
2022-10-22T09:27:58.704Z,19.70
2022-10-22T09:30:34.856Z,19.72
2022-10-22T09:33:15.105Z,19.69
2022-10-22T09:35:52.879Z,19.55
2022-10-22T09:38:28.502Z,19.46
2022-10-22T09:41:03.719Z,18.81
2022-10-22T09:43:38.383Z,19.06
2022-10-22T09:46:18.031Z,19.08
2022-10-22T09:48:59.227Z,19.19
2022-10-22T09:51:46.714Z,19.14
2022-10-22T09:54:22.369Z,18.82
2022-10-22T09:56:58.230Z,19.09
2022-10-22T09:59:35.139Z,19.43
2022-10-22T10:02:26.630Z,19.38
2022-10-22T10:05:08.761Z,19.50
2022-10-22T10:07:42.299Z,19.37
2022-10-22T10:10:20.729Z,19.33
2022-10-22T10:13:02.708Z,19.26
2022-10-22T10:15:43.241Z,18.95
2022-10-22T10:18:29.449Z,18.96
2022-10-22T10:21:11.126Z,19.22
2022-10-22T10:23:54.447Z,19.07
2022-10-22T10:26:33.901Z,19.07
2022-10-22T10:29:27.541Z,19.05
2022-10-22T10:32:31.712Z,18.84
2022-10-22T10:35:17.177Z,18.66
2022-10-22T10:38:05.165Z,18.82
2022-10-22T10:40:46.124Z,19.04
2022-10-22T10:43:26.278Z,19.08
2022-10-22T10:46:09.164Z,19.09
2022-10-22T10:48:51.701Z,19.12
2022-10-22T10:51:46.373Z,18.90
2022-10-22T10:54:29.657Z,18.96
2022-10-22T10:57:10.431Z,19.03
2022-10-22T10:59:57.994Z,19.22
2022-10-22T11:03:04.045Z,19.43
2022-10-22T11:05:43.147Z,19.50
2022-10-22T11:08:21.330Z,19.82
2022-10-22T11:11:00.840Z,20.12
2022-10-22T11:13:37.839Z,20.31
2022-10-22T11:16:21.276Z,20.36
2022-10-22T11:19:03.384Z,20.00
2022-10-22T11:21:42.052Z,20.04
2022-10-22T11:24:24.019Z,19.75
2022-10-22T11:27:02.161Z,19.86
2022-10-22T11:29:41.390Z,19.89
2022-10-22T11:32:19.435Z,19.94
2022-10-22T11:34:56.175Z,20.18
2022-10-22T11:37:35.144Z,20.47
2022-10-22T11:40:15.345Z,20.24
2022-10-22T11:42:53.341Z,20.20
2022-10-22T11:45:31.810Z,20.16
2022-10-22T11:48:19.030Z,20.23
2022-10-22T11:50:56.801Z,20.39
2022-10-22T11:53:35.379Z,20.24
2022-10-22T11:56:37.562Z,20.01
2022-10-22T11:59:39.000Z,20.10
2022-10-22T12:02:41.834Z,19.99
2022-10-22T12:05:20.458Z,20.17
2022-10-22T12:07:57.136Z,19.88
2022-10-22T12:10:36.832Z,19.94
2022-10-22T12:13:23.831Z,20.25
2022-10-22T12:16:00.544Z,20.19
2022-10-22T12:18:41.072Z,20.19
2022-10-22T12:21:15.284Z,20.13
2022-10-22T12:23:48.231Z,20.53
2022-10-22T12:29:11.415Z,20.58
2022-10-22T12:31:47.437Z,20.55
2022-10-22T12:34:23.554Z,20.51
2022-10-22T12:36:56.631Z,20.77
2022-10-22T12:39:29.996Z,20.86
2022-10-22T12:42:06.343Z,20.82
2022-10-22T12:44:39.234Z,20.93
2022-10-22T12:47:16.889Z,21.05
2022-10-22T12:49:51.832Z,20.76
2022-10-22T12:52:25.854Z,20.93
2022-10-22T12:54:58.839Z,20.86
2022-10-22T12:57:33.189Z,20.82
2022-10-22T13:00:20.668Z,20.77
2022-10-22T13:02:54.201Z,20.71
2022-10-22T13:05:28.351Z,20.73
2022-10-22T13:08:05.514Z,20.64
2022-10-22T13:10:40.533Z,20.39
2022-10-22T13:13:33.839Z,20.22
2022-10-22T13:16:24.225Z,20.27
2022-10-22T13:18:57.307Z,20.24
2022-10-22T13:21:35.060Z,20.34
2022-10-22T13:24:22.534Z,20.20
2022-10-22T13:26:56.032Z,20.06
2022-10-22T13:29:30.385Z,19.94
2022-10-22T13:32:03.260Z,20.17
2022-10-22T13:34:36.818Z,20.29
2022-10-22T13:37:10.518Z,20.20
2022-10-22T13:39:43.351Z,20.27
2022-10-22T13:42:16.198Z,20.20
2022-10-22T13:44:50.681Z,19.89
2022-10-22T13:47:28.950Z,19.80
2022-10-22T13:50:04.282Z,20.06
2022-10-22T13:52:39.885Z,20.11
2022-10-22T13:55:21.481Z,20.01
2022-10-22T13:57:56.493Z,19.87
2022-10-22T14:00:30.898Z,20.14
2022-10-22T14:03:03.910Z,20.24
2022-10-22T14:05:36.810Z,20.25
2022-10-22T14:08:12.867Z,20.32
2022-10-22T14:10:46.046Z,20.25
2022-10-22T14:13:20.502Z,20.35
2022-10-22T14:15:54.752Z,20.60
2022-10-22T14:18:31.659Z,20.69
2022-10-22T14:21:07.506Z,20.80
2022-10-22T14:23:41.893Z,20.92
2022-10-22T14:29:10.752Z,21.00
2022-10-22T14:31:45.826Z,20.94
2022-10-22T14:34:18.621Z,21.14
2022-10-22T14:36:51.418Z,21.04
2022-10-22T14:39:24.203Z,21.11
2022-10-22T14:41:57.085Z,21.13
2022-10-22T14:44:29.875Z,20.80
2022-10-22T14:47:04.154Z,20.87
2022-10-22T14:49:37.001Z,20.82
2022-10-22T14:52:12.905Z,20.72
2022-10-22T14:54:48.601Z,20.67
2022-10-22T14:57:21.404Z,20.76
2022-10-22T14:59:54.909Z,20.76
2022-10-22T15:02:29.345Z,20.56
2022-10-22T15:05:02.215Z,20.48
2022-10-22T15:07:35.381Z,20.44
2022-10-22T15:10:09.757Z,20.30
2022-10-22T15:12:43.889Z,20.20
2022-10-22T15:15:18.242Z,20.15
2022-10-22T15:17:55.011Z,20.10
2022-10-22T15:20:28.914Z,20.02
2022-10-22T15:23:01.728Z,20.08
2022-10-22T15:25:34.579Z,20.04
2022-10-22T15:28:09.843Z,20.07
2022-10-22T15:30:42.970Z,20.13
2022-10-22T15:33:17.152Z,20.07
2022-10-22T15:35:50.071Z,20.18
2022-10-22T15:38:23.770Z,20.14
2022-10-22T15:41:05.294Z,20.16
2022-10-22T15:43:38.698Z,20.10
2022-10-22T15:46:14.059Z,20.05
2022-10-22T15:48:48.522Z,19.97
2022-10-22T15:51:22.183Z,19.93
2022-10-22T15:53:57.167Z,19.91
2022-10-22T15:56:31.535Z,19.78
2022-10-22T15:59:05.058Z,19.79
2022-10-22T16:01:38.586Z,19.70
2022-10-22T16:04:13.150Z,19.55
2022-10-22T16:06:47.918Z,19.55
2022-10-22T16:09:23.089Z,19.42
2022-10-22T16:11:56.629Z,19.44
2022-10-22T16:14:29.829Z,19.39
2022-10-22T16:17:02.653Z,19.46
2022-10-22T16:19:36.905Z,19.37
2022-10-22T16:22:13.903Z,19.28
2022-10-22T16:24:46.683Z,19.29
2022-10-22T16:27:19.520Z,19.30
2022-10-22T16:29:52.377Z,19.18
2022-10-22T16:32:25.216Z,19.16
2022-10-22T16:34:59.445Z,19.12
2022-10-22T16:37:32.335Z,19.01
2022-10-22T16:40:08.176Z,18.98
2022-10-22T16:42:42.008Z,18.84
2022-10-22T16:47:53.818Z,18.89
2022-10-22T16:50:28.483Z,18.86
2022-10-22T16:53:01.291Z,18.87
2022-10-22T16:55:37.898Z,18.75
2022-10-22T16:58:10.743Z,18.77
2022-10-22T17:00:43.758Z,18.74
2022-10-22T17:03:16.660Z,18.69
2022-10-22T17:05:50.865Z,18.67
2022-10-22T17:08:23.714Z,18.67
2022-10-22T17:10:56.580Z,18.56
2022-10-22T17:13:29.396Z,18.62
2022-10-22T17:16:03.194Z,18.63
2022-10-22T17:18:37.686Z,18.61
2022-10-22T17:21:13.482Z,18.55
2022-10-22T17:23:46.870Z,18.55
2022-10-22T17:26:22.771Z,18.48
2022-10-22T17:28:55.927Z,18.47
2022-10-22T17:31:32.650Z,18.39
2022-10-22T17:34:07.094Z,18.47
2022-10-22T17:36:41.313Z,18.46
2022-10-22T17:39:18.810Z,18.40
2022-10-22T17:41:51.690Z,18.47
2022-10-22T17:44:24.527Z,18.50
2022-10-22T17:46:57.504Z,18.55
2022-10-22T17:49:30.403Z,18.59
2022-10-22T17:52:04.759Z,18.54
2022-10-22T17:54:37.684Z,18.58
2022-10-22T17:57:10.695Z,18.57
2022-10-22T17:59:43.661Z,18.51
2022-10-22T18:02:18.462Z,18.47
2022-10-22T18:04:52.990Z,18.46
2022-10-22T18:07:27.392Z,18.49
2022-10-22T18:10:00.215Z,18.41
2022-10-22T18:12:33.099Z,18.43
2022-10-22T18:15:06.856Z,18.40
2022-10-22T18:17:40.204Z,18.33
2022-10-22T18:20:13.935Z,18.19
2022-10-22T18:22:48.135Z,18.08
2022-10-22T18:25:20.955Z,18.20
2022-10-22T18:27:53.799Z,18.28
2022-10-22T18:30:26.556Z,18.23
2022-10-22T18:32:59.402Z,18.30
2022-10-22T18:35:33.105Z,18.25
2022-10-22T18:38:07.317Z,18.40
2022-10-22T18:40:45.557Z,18.45
2022-10-22T18:43:19.332Z,18.35
2022-10-22T18:45:52.270Z,18.24
2022-10-22T18:48:25.129Z,18.38
2022-10-22T18:51:03.154Z,18.47
2022-10-22T18:53:38.449Z,18.55
2022-10-22T18:56:14.197Z,18.44
2022-10-22T18:58:49.156Z,18.45
2022-10-22T19:01:24.345Z,18.37
2022-10-22T19:03:57.993Z,18.28
2022-10-22T19:06:34.522Z,18.34
2022-10-22T19:09:10.204Z,18.40
2022-10-22T19:11:44.557Z,18.32
2022-10-22T19:14:19.557Z,18.30
2022-10-22T19:16:52.425Z,18.31
2022-10-22T19:19:25.514Z,18.27
2022-10-22T19:21:59.538Z,18.25
2022-10-22T19:24:34.011Z,18.24
2022-10-22T19:27:06.829Z,18.28
2022-10-22T19:29:39.880Z,18.23
2022-10-22T19:32:12.778Z,18.34
2022-10-22T19:34:46.508Z,18.30
2022-10-22T19:37:19.347Z,18.25
2022-10-22T19:39:53.600Z,18.22
2022-10-22T19:42:26.792Z,18.00
2022-10-22T19:44:59.657Z,18.18
2022-10-22T19:47:32.577Z,18.19
2022-10-22T19:50:05.960Z,18.14
2022-10-22T19:52:38.990Z,18.10
2022-10-22T19:55:13.449Z,18.08
2022-10-22T19:57:46.266Z,18.14
2022-10-22T20:00:19.255Z,18.06
2022-10-22T20:02:52.072Z,18.10
2022-10-22T20:05:24.966Z,17.98
2022-10-22T20:07:57.895Z,18.04
2022-10-22T20:10:32.345Z,18.03
2022-10-22T20:13:05.424Z,18.01
2022-10-22T20:15:38.258Z,17.98
2022-10-22T20:18:11.078Z,18.00
2022-10-22T20:20:43.943Z,17.89
2022-10-22T20:23:16.888Z,17.92
2022-10-22T20:25:51.087Z,17.88
2022-10-22T20:28:23.859Z,17.98
2022-10-22T20:30:56.674Z,18.04
2022-10-22T20:33:29.644Z,17.87
2022-10-22T20:36:04.263Z,17.93
2022-10-22T20:41:18.962Z,17.98
2022-10-22T20:43:53.929Z,17.91
2022-10-22T20:46:29.200Z,17.96
2022-10-22T20:49:04.492Z,17.97
2022-10-22T20:51:38.350Z,18.03
2022-10-22T20:54:11.727Z,17.97
2022-10-22T20:56:47.872Z,17.99
2022-10-22T20:59:20.749Z,18.01
2022-10-22T21:01:56.474Z,18.08
2022-10-22T21:04:30.548Z,18.14
2022-10-22T21:07:03.377Z,18.01
2022-10-22T21:09:36.388Z,18.08
2022-10-22T21:12:10.665Z,18.04
2022-10-22T21:14:43.489Z,18.19
2022-10-22T21:17:16.396Z,18.30
2022-10-22T21:19:49.191Z,18.17
2022-10-22T21:22:22.067Z,18.17
2022-10-22T21:24:54.848Z,18.19
2022-10-22T21:27:29.046Z,18.28
2022-10-22T21:30:01.848Z,18.28
2022-10-22T21:32:34.913Z,18.28
2022-10-22T21:35:08.151Z,18.27
2022-10-22T21:37:41.157Z,18.20
2022-10-22T21:40:14.616Z,18.15
2022-10-22T21:42:50.981Z,18.14
2022-10-22T21:45:23.877Z,18.08
2022-10-22T21:47:58.205Z,18.00
2022-10-22T21:50:31.266Z,18.06
2022-10-22T21:53:04.068Z,18.16
2022-10-22T21:55:39.667Z,18.23
2022-10-22T21:58:13.860Z,18.19
2022-10-22T22:00:54.922Z,18.26
2022-10-22T22:03:28.358Z,18.24
2022-10-22T22:06:01.672Z,18.29
2022-10-22T22:08:35.063Z,18.24
2022-10-22T22:11:09.938Z,18.34
2022-10-22T22:13:44.492Z,18.40
2022-10-22T22:16:22.412Z,18.46
2022-10-22T22:19:00.424Z,18.55
2022-10-22T22:21:33.446Z,18.53
2022-10-22T22:24:07.625Z,18.64
2022-10-22T22:26:40.574Z,18.59
2022-10-22T22:29:15.010Z,18.69
2022-10-22T22:31:47.910Z,18.64
2022-10-22T22:34:20.752Z,18.60
2022-10-22T22:36:53.544Z,18.48
2022-10-22T22:39:26.692Z,18.49
2022-10-22T22:41:59.592Z,18.59
2022-10-22T22:44:33.938Z,18.64
2022-10-22T22:47:06.752Z,18.50
2022-10-22T22:49:39.559Z,18.65
2022-10-22T22:52:12.532Z,18.53
2022-10-22T22:54:45.353Z,18.62
2022-10-22T22:57:18.175Z,18.65
2022-10-22T22:59:52.666Z,18.62
2022-10-22T23:02:25.468Z,18.51
2022-10-22T23:04:58.481Z,18.62
2022-10-22T23:07:31.301Z,18.59
2022-10-22T23:10:04.527Z,18.64
2022-10-22T23:12:37.310Z,18.54
2022-10-22T23:15:12.872Z,18.51
2022-10-22T23:17:45.683Z,18.55
2022-10-22T23:20:18.536Z,18.37
2022-10-22T23:22:51.347Z,18.45
2022-10-22T23:25:24.182Z,18.33
2022-10-22T23:27:56.971Z,18.44
2022-10-22T23:30:31.193Z,18.42
2022-10-22T23:33:03.982Z,18.42
2022-10-22T23:35:40.558Z,18.44
2022-10-22T23:38:13.376Z,18.34
2022-10-22T23:40:46.179Z,18.32
2022-10-22T23:43:18.984Z,18.41
2022-10-22T23:45:53.671Z,18.44
2022-10-22T23:48:26.595Z,18.21
2022-10-22T23:51:05.337Z,18.44
2022-10-22T23:53:38.588Z,18.43
2022-10-22T23:56:15.241Z,18.41
2022-10-22T23:58:51.452Z,18.42
